Terminal Aerodrome Forecast
Issued by NWS

Current Version | Previous Version | Graphics & Text | Print | Product List | Glossary On
Versions: 1 2 3 4 5 6 7 8 9 10 11 12 13 14 15 16
000
FTUS41 KPBZ 201900 AAA
TAFMGW
TAF AMD
KMGW 201927Z 2019/2118 VRB03KT P6SM SCT025 BKN100
      TEMPO 2019/2021 BKN025 BKN150
     FM210400 00000KT P6SM BKN025
     FM211000 00000KT P6SM OVC015=

USA.gov is the U.S. government's official web portal to all federal, state and local government web resources and services.